Time;durP1;ratioP1;P1;durP2;ratioP2;P2;SDS_P1;SDS_P2;PMS_P1;PMS_P2;Temp;Humidity;BMP_temperature;BMP_pressure;BME280_temperature;BME280_humidity;BME280_pressure;Samples;Min_cycle;Max_cycle;Signal;HPM_P1;HPM_P2
2022/01/10 00:00:06;;;;;;;24.30;4.55;;;2.10;99.90;;;;;;5032496;28;20399;-67
2022/01/10 00:02:32;;;;;;;17.55;4.70;;;2.00;99.90;;;;;;5050815;28;20053;-67
2022/01/10 00:04:58;;;;;;;11.60;3.95;;;2.00;99.90;;;;;;5050966;28;20056;-67
2022/01/10 00:07:26;;;;;;;15.90;4.32;;;1.90;99.90;;;;;;5049839;28;20060;-67
2022/01/10 00:09:51;;;;;;;12.80;4.30;;;1.80;99.90;;;;;;5032616;28;20040;-67
2022/01/10 00:12:17;;;;;;;13.02;4.18;;;1.80;99.90;;;;;;5032665;28;20049;-67
2022/01/10 00:14:43;;;;;;;18.55;4.22;;;1.80;99.90;;;;;;5032352;28;20065;-66
2022/01/10 00:17:09;;;;;;;15.15;3.88;;;1.70;99.90;;;;;;5050139;28;20049;-66
2022/01/10 00:19:34;;;;;;;9.20;2.70;;;1.70;99.90;;;;;;5050099;28;20146;-66
2022/01/10 00:22:08;;;;;;;19.35;3.22;;;1.60;99.90;;;;;;5032898;28;20061;-66
2022/01/10 00:24:33;;;;;;;18.08;4.28;;;1.50;99.90;;;;;;5033253;28;20106;-66
2022/01/10 00:26:59;;;;;;;14.18;4.07;;;1.50;99.90;;;;;;5049967;28;20084;-66
2022/01/10 00:29:25;;;;;;;12.57;4.45;;;1.50;99.90;;;;;;5050259;28;20107;-67
2022/01/10 00:31:50;;;;;;;11.27;3.85;;;1.50;99.90;;;;;;5032510;28;20053;-66
2022/01/10 00:34:17;;;;;;;15.20;4.47;;;1.60;99.90;;;;;;5049613;28;20074;-66
2022/01/10 00:36:42;;;;;;;16.45;4.18;;;1.40;99.90;;;;;;5032429;28;20079;-66
2022/01/10 00:39:08;;;;;;;9.90;3.80;;;1.30;99.90;;;;;;5050362;28;20053;-67
2022/01/10 00:41:34;;;;;;;11.68;3.65;;;1.30;99.90;;;;;;5031503;28;20056;-66
2022/01/10 00:44:01;;;;;;;9.30;3.17;;;1.30;99.90;;;;;;5032708;28;20053;-66
2022/01/10 00:46:27;;;;;;;8.55;3.58;;;1.20;99.90;;;;;;5049744;28;20133;-66
2022/01/10 00:48:55;;;;;;;14.10;3.83;;;1.20;99.90;;;;;;5031636;28;20080;-66
2022/01/10 00:51:20;;;;;;;16.85;3.95;;;1.30;99.90;;;;;;5032240;28;20135;-66
2022/01/10 00:53:49;;;;;;;11.20;4.85;;;1.20;99.90;;;;;;5033447;28;20128;-66
2022/01/10 00:56:16;;;;;;;11.55;3.00;;;1.30;99.90;;;;;;5053303;28;20053;-67
2022/01/10 00:58:41;;;;;;;5.95;3.28;;;1.10;99.90;;;;;;5054138;28;20037;-66
2022/01/10 01:01:07;;;;;;;9.75;3.10;;;1.10;99.90;;;;;;5035917;28;20041;-67
2022/01/10 01:03:33;;;;;;;14.00;4.28;;;1.00;99.90;;;;;;5035547;28;20488;-66
2022/01/10 01:05:58;;;;;;;8.23;3.60;;;1.00;99.90;;;;;;5035330;28;20044;-66
2022/01/10 01:08:26;;;;;;;9.70;3.92;;;1.00;99.90;;;;;;5035736;28;20500;-66
2022/01/10 01:24:02;;;;;;;15.68;4.10;;;0.90;99.90;;;;;;5046402;28;20133;-66
2022/01/10 01:26:39;;;;;;;8.30;3.03;;;1.00;99.90;;;;;;5037851;28;20037;-67
2022/01/10 01:29:07;;;;;;;15.32;3.88;;;0.90;99.90;;;;;;5050970;28;20484;-67
2022/01/10 01:31:33;;;;;;;7.15;3.22;;;0.90;99.90;;;;;;5048345;28;20045;-67
2022/01/10 01:33:59;;;;;;;9.75;3.45;;;0.90;99.90;;;;;;5061012;28;20048;-67
2022/01/10 01:36:26;;;;;;;10.38;2.83;;;0.80;99.90;;;;;;5044095;28;20061;-67
2022/01/10 01:38:55;;;;;;;8.48;3.42;;;0.80;99.90;;;;;;5034723;28;20045;-67
2022/01/10 01:43:49;;;;;;;9.52;3.13;;;0.80;99.90;;;;;;5034787;28;20060;-67
2022/01/10 01:46:15;;;;;;;9.10;3.78;;;0.70;99.90;;;;;;5053052;28;20069;-67
2022/01/10 01:48:41;;;;;;;10.18;3.28;;;0.70;99.90;;;;;;5035354;28;20120;-67
2022/01/10 01:51:06;;;;;;;10.82;3.35;;;0.70;99.90;;;;;;5061341;28;20147;-67
2022/01/10 01:53:33;;;;;;;10.02;3.05;;;0.70;99.90;;;;;;5073223;28;20487;-66
2022/01/10 01:55:59;;;;;;;11.40;3.97;;;0.70;99.90;;;;;;5043352;28;20049;-67
2022/01/10 01:58:26;;;;;;;11.02;3.60;;;0.70;99.90;;;;;;5034184;28;20045;-66
2022/01/10 02:00:52;;;;;;;21.60;5.68;;;0.70;99.90;;;;;;5035170;28;20045;-67
2022/01/10 02:03:18;;;;;;;18.17;5.53;;;0.70;99.90;;;;;;5034652;28;20057;-67
2022/01/10 02:05:44;;;;;;;11.85;4.00;;;0.80;99.90;;;;;;5034065;28;20639;-66
2022/01/10 02:08:10;;;;;;;12.63;4.07;;;0.60;99.90;;;;;;5052788;28;20053;-67
2022/01/10 02:10:37;;;;;;;9.60;4.05;;;0.70;99.90;;;;;;5034857;28;20672;-67
2022/01/10 02:13:03;;;;;;;8.27;5.15;;;0.70;99.90;;;;;;5034328;28;20056;-67
2022/01/10 02:15:59;;;;;;;13.98;6.25;;;0.60;99.90;;;;;;5034921;28;20507;-67
2022/01/10 02:18:25;;;;;;;14.75;6.25;;;0.60;99.90;;;;;;5052469;28;20452;-67
2022/01/10 02:20:51;;;;;;;14.60;4.80;;;0.60;99.90;;;;;;5034193;28;20078;-67
2022/01/10 02:23:18;;;;;;;15.00;4.53;;;0.50;99.90;;;;;;5034406;28;20372;-67
2022/01/10 02:25:44;;;;;;;13.25;4.78;;;0.50;99.90;;;;;;5035074;28;20040;-67
2022/01/10 02:28:10;;;;;;;12.27;5.03;;;0.60;99.90;;;;;;5063962;28;20051;-67
2022/01/10 02:30:36;;;;;;;10.98;4.97;;;0.60;99.90;;;;;;5047547;28;20044;-67
2022/01/10 02:33:03;;;;;;;11.38;5.03;;;0.60;99.90;;;;;;5071945;28;20076;-67
2022/01/10 02:35:34;;;;;;;13.90;5.18;;;0.60;99.90;;;;;;5053255;28;20049;-67
2022/01/10 02:38:01;;;;;;;11.27;4.17;;;0.60;99.90;;;;;;5052594;28;20380;-67
2022/01/10 02:40:29;;;;;;;13.98;5.03;;;0.60;99.90;;;;;;5033478;28;20052;-67
2022/01/10 02:42:55;;;;;;;11.48;4.65;;;0.80;99.90;;;;;;5034150;28;20075;-66
2022/01/10 02:45:21;;;;;;;12.45;4.65;;;0.60;99.90;;;;;;5051710;28;20041;-67
2022/01/10 02:47:47;;;;;;;14.93;4.50;;;0.60;99.90;;;;;;5051473;28;20053;-67
2022/01/10 02:50:14;;;;;;;10.48;4.10;;;0.60;99.90;;;;;;5033740;28;20488;-67
2022/01/10 02:52:40;;;;;;;14.43;4.53;;;0.70;99.90;;;;;;5034314;28;20060;-68
2022/01/10 02:55:08;;;;;;;18.83;4.45;;;0.50;99.90;;;;;;5051081;28;20748;-67
2022/01/10 02:57:34;;;;;;;7.65;4.03;;;0.50;99.90;;;;;;5034006;28;20044;-67
2022/01/10 03:00:04;;;;;;;10.90;4.22;;;0.50;99.90;;;;;;5034104;28;20076;-67
2022/01/10 03:02:34;;;;;;;13.38;5.47;;;0.50;99.90;;;;;;5060638;28;20052;-67
2022/01/10 03:05:00;;;;;;;23.75;5.53;;;0.50;99.90;;;;;;5051968;28;20399;-67
2022/01/10 03:07:27;;;;;;;12.55;5.32;;;0.40;99.90;;;;;;5066308;28;20047;-67
2022/01/10 03:09:53;;;;;;;17.15;4.70;;;0.40;99.90;;;;;;5070926;28;20050;-67
2022/01/10 03:12:20;;;;;;;21.95;5.63;;;0.40;99.90;;;;;;5039884;28;20779;-67
2022/01/10 03:14:46;;;;;;;10.35;3.85;;;0.40;99.90;;;;;;5034099;28;20049;-67
2022/01/10 03:17:12;;;;;;;10.55;4.82;;;0.40;99.90;;;;;;5031875;28;20047;-67
2022/01/10 03:19:40;;;;;;;13.50;5.63;;;0.40;99.90;;;;;;5033753;28;20099;-67
2022/01/10 03:22:06;;;;;;;20.02;6.38;;;0.40;99.90;;;;;;5033499;28;20049;-67
2022/01/10 03:24:33;;;;;;;16.73;4.90;;;0.40;99.90;;;;;;5032760;28;20128;-67
2022/01/10 03:26:58;;;;;;;14.38;5.10;;;0.40;99.90;;;;;;5051715;28;20395;-67
2022/01/10 03:29:24;;;;;;;13.70;5.88;;;0.40;99.90;;;;;;5032873;28;20045;-67
2022/01/10 03:31:50;;;;;;;18.63;6.65;;;0.50;99.90;;;;;;5033778;28;20071;-67
2022/01/10 03:34:15;;;;;;;13.75;5.65;;;0.40;99.90;;;;;;5051202;28;20122;-67
2022/01/10 03:36:42;;;;;;;17.08;5.75;;;0.50;99.90;;;;;;5050692;28;20045;-67
2022/01/10 03:39:08;;;;;;;18.95;5.70;;;0.40;99.90;;;;;;5033075;28;20057;-67
2022/01/10 03:41:35;;;;;;;18.15;5.90;;;0.40;99.90;;;;;;5033387;28;20060;-67
2022/01/10 03:44:01;;;;;;;15.05;6.70;;;0.40;99.90;;;;;;5032663;28;20056;-67
2022/01/10 03:46:28;;;;;;;12.07;5.50;;;0.50;99.90;;;;;;5033074;28;20053;-67
2022/01/10 03:48:54;;;;;;;15.18;6.45;;;0.60;99.90;;;;;;5033428;28;20080;-67
2022/01/10 03:51:19;;;;;;;12.00;5.28;;;0.40;99.90;;;;;;5032354;28;20134;-67
2022/01/10 03:53:45;;;;;;;12.00;6.13;;;0.50;99.90;;;;;;5033084;28;20048;-67
2022/01/10 03:56:11;;;;;;;20.02;6.60;;;0.40;99.90;;;;;;5032808;28;20369;-67
2022/01/10 03:58:36;;;;;;;12.15;6.78;;;0.50;99.90;;;;;;5050154;28;20479;-67
2022/01/10 04:01:03;;;;;;;17.33;6.28;;;0.40;99.90;;;;;;5033297;28;20087;-67
2022/01/10 04:03:29;;;;;;;16.35;6.55;;;0.40;99.90;;;;;;5032944;28;20084;-67
2022/01/10 04:05:55;;;;;;;14.38;7.18;;;0.40;99.90;;;;;;5050188;28;20089;-67
2022/01/10 04:08:20;;;;;;;18.50;7.32;;;0.50;99.90;;;;;;5032722;28;20040;-67
2022/01/10 04:10:46;;;;;;;23.00;6.97;;;0.50;99.90;;;;;;5032989;28;20072;-67
2022/01/10 04:13:11;;;;;;;20.10;8.35;;;0.70;99.90;;;;;;5032098;28;20052;-67
2022/01/10 04:15:37;;;;;;;26.27;7.57;;;0.80;99.90;;;;;;5050732;28;20053;-67
2022/01/10 04:18:03;;;;;;;15.85;7.75;;;0.60;99.90;;;;;;5032896;28;20044;-67
2022/01/10 04:20:29;;;;;;;22.45;8.60;;;0.50;99.90;;;;;;5032380;28;20094;-67
2022/01/10 04:22:54;;;;;;;19.48;7.55;;;0.60;99.90;;;;;;5032488;28;20118;-67
2022/01/10 04:25:20;;;;;;;20.80;8.20;;;0.80;99.90;;;;;;5050670;28;20041;-67
2022/01/10 04:27:46;;;;;;;27.73;9.38;;;0.60;99.90;;;;;;5050165;28;20072;-67
2022/01/10 04:30:11;;;;;;;27.92;9.98;;;0.60;99.90;;;;;;5035755;28;20049;-67
2022/01/10 04:32:38;;;;;;;19.52;8.25;;;0.60;99.90;;;;;;5035934;28;20059;-67
2022/01/10 04:35:05;;;;;;;21.30;9.15;;;0.60;99.90;;;;;;5054548;28;20069;-67
2022/01/10 04:37:31;;;;;;;27.67;8.45;;;0.60;99.90;;;;;;5036844;28;20045;-67
2022/01/10 04:39:56;;;;;;;23.00;8.00;;;0.60;99.90;;;;;;5054174;28;20554;-67
2022/01/10 04:42:22;;;;;;;25.67;10.23;;;0.50;99.90;;;;;;5054122;28;20499;-67
2022/01/10 04:44:49;;;;;;;34.33;10.32;;;0.50;99.90;;;;;;5054540;28;20500;-67
2022/01/10 04:47:15;;;;;;;24.42;7.63;;;0.50;99.90;;;;;;5035433;28;20064;-67
2022/01/10 04:52:25;;;;;;;22.60;8.95;;;0.50;99.90;;;;;;5036170;28;20487;-67
2022/01/10 04:54:51;;;;;;;24.85;11.15;;;0.50;99.90;;;;;;5035685;28;20052;-67
2022/01/10 04:57:20;;;;;;;20.50;9.57;;;0.60;99.90;;;;;;5053975;28;20092;-67
2022/01/10 04:59:45;;;;;;;26.13;11.25;;;0.60;99.90;;;;;;5054314;28;20068;-67
2022/01/10 05:02:11;;;;;;;24.67;10.07;;;0.50;99.90;;;;;;5035212;28;20128;-67
2022/01/10 05:04:37;;;;;;;29.02;10.23;;;0.50;99.90;;;;;;5054108;28;20041;-67
2022/01/10 05:07:03;;;;;;;34.15;11.52;;;0.50;99.90;;;;;;5054264;28;20400;-67
2022/01/10 05:09:29;;;;;;;28.95;11.10;;;0.50;99.90;;;;;;5053411;28;20187;-67
2022/01/10 05:11:55;;;;;;;23.02;10.98;;;0.50;99.90;;;;;;5054098;28;20135;-67
2022/01/10 05:14:21;;;;;;;34.20;11.25;;;0.50;99.90;;;;;;5035686;28;20056;-67
2022/01/10 05:16:47;;;;;;;23.08;10.30;;;0.50;99.90;;;;;;5053159;28;20079;-67
2022/01/10 05:19:13;;;;;;;27.67;11.45;;;0.50;99.90;;;;;;5035831;28;20472;-66
2022/01/10 05:21:39;;;;;;;27.85;12.23;;;0.50;99.90;;;;;;5040077;28;20056;-66
2022/01/10 05:24:05;;;;;;;29.02;12.88;;;0.50;99.90;;;;;;5064420;28;20375;-66
2022/01/10 05:26:30;;;;;;;35.50;14.52;;;0.50;99.90;;;;;;5044046;28;20498;-66
2022/01/10 05:28:56;;;;;;;30.58;12.05;;;0.50;99.90;;;;;;5035158;28;20091;-66
2022/01/10 05:31:22;;;;;;;26.33;12.93;;;0.50;99.90;;;;;;5051513;28;20036;-66
2022/01/10 05:33:49;;;;;;;31.75;12.13;;;0.50;99.90;;;;;;5047351;28;20102;-66
2022/01/10 05:36:15;;;;;;;28.33;11.05;;;0.50;99.90;;;;;;5034637;28;20641;-67
2022/01/10 05:38:41;;;;;;;31.33;12.43;;;0.50;99.90;;;;;;5035747;28;20128;-66
2022/01/10 05:41:06;;;;;;;33.75;12.27;;;0.50;99.90;;;;;;5034437;28;20049;-66
2022/01/10 05:43:32;;;;;;;40.60;13.88;;;0.50;99.90;;;;;;5035003;28;20342;-66
2022/01/10 05:45:58;;;;;;;28.77;12.10;;;0.50;99.90;;;;;;5035531;28;20474;-66
2022/01/10 05:48:30;;;;;;;25.33;10.82;;;0.50;99.90;;;;;;5035171;28;20056;-66
2022/01/10 05:50:56;;;;;;;32.50;12.80;;;0.40;99.90;;;;;;5052775;28;20483;-66
2022/01/10 05:53:22;;;;;;;29.58;12.13;;;0.40;99.90;;;;;;5052910;28;20510;-66
2022/01/10 05:55:48;;;;;;;31.33;13.82;;;0.40;99.90;;;;;;5053246;28;20049;-66
2022/01/10 05:58:15;;;;;;;32.90;13.68;;;0.40;99.90;;;;;;5036786;28;20052;-66
2022/01/10 06:00:41;;;;;;;32.65;12.18;;;0.40;99.90;;;;;;5067647;28;20045;-66
2022/01/10 06:03:06;;;;;;;24.35;12.65;;;0.30;99.90;;;;;;5045102;28;20139;-66
2022/01/10 06:05:32;;;;;;;33.30;13.93;;;0.50;99.90;;;;;;5046661;28;20052;-66
2022/01/10 06:07:59;;;;;;;33.17;14.18;;;0.30;99.90;;;;;;5044436;28;20079;-66
2022/01/10 06:10:26;;;;;;;28.40;12.95;;;0.30;99.90;;;;;;5052700;28;20377;-66
2022/01/10 06:12:52;;;;;;;29.00;14.68;;;0.20;99.90;;;;;;5034494;28;20057;-66
2022/01/10 06:15:18;;;;;;;33.70;14.10;;;0.20;99.90;;;;;;5045059;28;20449;-66
2022/01/10 06:17:44;;;;;;;29.27;13.77;;;0.20;99.90;;;;;;5072315;28;20139;-66
2022/01/10 06:20:09;;;;;;;27.38;13.45;;;0.20;99.90;;;;;;5043772;28;20090;-66
2022/01/10 06:22:35;;;;;;;24.10;12.45;;;0.20;99.90;;;;;;5042681;28;20107;-66
2022/01/10 06:25:01;;;;;;;29.63;12.65;;;0.10;99.90;;;;;;5054556;28;20049;-66
2022/01/10 06:27:30;;;;;;;50.03;16.23;;;0.10;99.90;;;;;;5033985;28;20053;-66
2022/01/10 06:29:56;;;;;;;80.07;20.20;;;0.10;99.90;;;;;;5034463;28;20053;-66
2022/01/10 06:32:22;;;;;;;28.50;13.65;;;0.10;99.90;;;;;;5033303;28;20045;-66
2022/01/10 06:34:48;;;;;;;31.25;14.48;;;0.10;99.90;;;;;;5055731;28;20479;-66
2022/01/10 06:37:13;;;;;;;30.88;15.07;;;0.10;99.90;;;;;;5052059;28;20048;-66
2022/01/10 06:39:39;;;;;;;35.30;15.15;;;0.10;99.90;;;;;;5060528;28;20048;-66
2022/01/10 06:42:05;;;;;;;36.45;15.30;;;0.10;99.90;;;;;;5072066;28;20472;-66
2022/01/10 06:44:31;;;;;;;23.20;13.70;;;0.10;99.90;;;;;;5054316;28;20045;-66
2022/01/10 06:46:57;;;;;;;29.08;14.15;;;0.10;99.90;;;;;;5044191;28;20053;-66
2022/01/10 06:49:22;;;;;;;29.95;13.57;;;0.10;99.90;;;;;;5034325;28;20396;-66
2022/01/10 06:51:49;;;;;;;27.70;13.82;;;0.00;99.90;;;;;;5033117;28;20509;-66
2022/01/10 06:54:15;;;;;;;24.98;14.07;;;0.00;99.90;;;;;;5033114;28;20056;-67
2022/01/10 06:56:41;;;;;;;27.10;13.98;;;-0.10;99.90;;;;;;5034594;28;20557;-66
2022/01/10 06:59:07;;;;;;;26.20;13.50;;;-0.10;99.90;;;;;;5039462;28;20080;-66
2022/01/10 07:01:34;;;;;;;24.65;13.57;;;0.00;99.90;;;;;;5049992;28;20347;-66
2022/01/10 07:03:59;;;;;;;31.92;14.52;;;-0.10;99.90;;;;;;5034189;28;20147;-66
2022/01/10 07:06:25;;;;;;;27.90;14.85;;;-0.20;99.90;;;;;;5051759;28;20124;-67
2022/01/10 07:08:51;;;;;;;42.85;13.70;;;-0.20;99.90;;;;;;5051268;28;20475;-66
2022/01/10 07:11:17;;;;;;;32.05;15.27;;;-0.20;99.90;;;;;;5060705;28;20041;-66
2022/01/10 07:13:42;;;;;;;93.65;17.35;;;-0.30;99.90;;;;;;5033848;28;20052;-66
2022/01/10 07:16:08;;;;;;;154.55;18.40;;;-0.40;99.90;;;;;;5032402;28;20095;-68
2022/01/10 07:18:33;;;;;;;505.83;63.42;;;-0.40;99.90;;;;;;5051786;28;20041;-67
2022/01/10 07:20:59;;;;;;;223.68;23.25;;;-0.40;99.90;;;;;;5051639;28;20041;-68
2022/01/10 07:23:24;;;;;;;151.65;22.23;;;-0.40;99.90;;;;;;5051773;28;20044;-67
2022/01/10 07:25:51;;;;;;;139.70;19.08;;;-0.40;99.90;;;;;;5071206;28;20094;-68
2022/01/10 07:28:16;;;;;;;112.88;16.58;;;-0.30;99.90;;;;;;5042991;28;20098;-67
2022/01/10 07:30:42;;;;;;;92.57;14.25;;;-0.50;99.90;;;;;;5039965;28;20071;-67
2022/01/10 07:33:08;;;;;;;52.35;13.05;;;-0.50;99.90;;;;;;5050022;28;20481;-67
2022/01/10 07:35:33;;;;;;;65.68;13.15;;;-0.40;99.90;;;;;;5052475;28;20033;-67
2022/01/10 07:37:59;;;;;;;97.72;18.85;;;-0.50;99.90;;;;;;5033733;28;20060;-67
2022/01/10 07:40:25;;;;;;;110.93;14.40;;;-0.50;99.90;;;;;;5051022;28;20067;-67
2022/01/10 07:42:51;;;;;;;88.65;17.90;;;-0.50;99.90;;;;;;5050215;28;20071;-67
2022/01/10 07:45:16;;;;;;;111.50;16.75;;;-0.50;99.90;;;;;;5034533;28;20056;-67
2022/01/10 07:47:43;;;;;;;59.65;15.63;;;-0.50;99.90;;;;;;5061842;28;20505;-67
2022/01/10 07:50:09;;;;;;;69.13;14.23;;;-0.50;99.90;;;;;;5049138;28;20063;-67
2022/01/10 07:52:34;;;;;;;75.43;18.10;;;-0.50;99.90;;;;;;5046416;28;20045;-67
2022/01/10 07:55:00;;;;;;;59.63;14.40;;;-0.50;99.90;;;;;;5059274;28;20124;-67
2022/01/10 07:57:26;;;;;;;45.08;14.18;;;-0.50;99.90;;;;;;5035543;28;20090;-67
2022/01/10 07:59:51;;;;;;;61.20;16.02;;;-0.50;99.90;;;;;;5037178;28;20048;-67
2022/01/10 08:02:20;;;;;;;85.38;19.27;;;-0.50;99.90;;;;;;5038562;28;20109;-67
2022/01/10 08:04:46;;;;;;;76.97;16.52;;;-0.40;99.90;;;;;;5059812;28;20125;-67
2022/01/10 08:07:11;;;;;;;54.10;14.50;;;-0.50;99.90;;;;;;5043191;28;20106;-67
2022/01/10 08:09:37;;;;;;;74.68;16.15;;;-0.50;99.90;;;;;;5066555;28;20051;-67
2022/01/10 08:12:03;;;;;;;48.30;15.02;;;-0.60;99.90;;;;;;5050520;28;20053;-67
2022/01/10 08:14:31;;;;;;;21.95;11.98;;;0.50;99.90;;;;;;5063549;28;20041;-67
2022/01/10 08:16:59;;;;;;;24.27;13.48;;;-0.40;99.90;;;;;;5032806;28;20055;-67
2022/01/10 08:19:26;;;;;;;29.20;13.82;;;-0.30;99.90;;;;;;5038910;28;20143;-67
2022/01/10 08:21:55;;;;;;;28.00;13.05;;;-0.50;99.90;;;;;;5035220;28;20480;-67
2022/01/10 08:24:22;;;;;;;25.17;13.50;;;-0.40;99.90;;;;;;5032667;28;20095;-67
2022/01/10 08:26:49;;;;;;;29.65;15.30;;;-0.50;99.90;;;;;;5035522;28;20056;-67
2022/01/10 08:29:15;;;;;;;35.70;15.00;;;-0.40;99.90;;;;;;5032616;28;20048;-67
2022/01/10 08:31:40;;;;;;;29.40;15.07;;;-0.40;99.90;;;;;;5050483;28;20442;-67
2022/01/10 08:34:06;;;;;;;25.02;14.55;;;0.90;99.90;;;;;;5049827;28;20080;-67
2022/01/10 08:36:33;;;;;;;29.23;13.88;;;-0.40;99.90;;;;;;5032592;28;20052;-67
2022/01/10 08:38:59;;;;;;;28.88;13.65;;;-0.40;99.90;;;;;;5049734;28;20080;-67
2022/01/10 08:41:25;;;;;;;31.83;15.10;;;-0.40;99.90;;;;;;5050081;28;20047;-67
2022/01/10 08:43:51;;;;;;;24.98;14.18;;;-0.30;99.90;;;;;;5032666;28;20504;-68
2022/01/10 08:46:16;;;;;;;23.98;13.90;;;-0.30;99.90;;;;;;5031723;28;20067;-68
2022/01/10 08:48:42;;;;;;;30.73;14.45;;;-0.20;99.90;;;;;;5060335;28;20053;-69
2022/01/10 08:51:08;;;;;;;52.58;16.67;;;-0.20;99.90;;;;;;5039126;28;20037;-69
2022/01/10 08:53:34;;;;;;;82.25;18.27;;;-0.20;99.90;;;;;;5045737;28;20117;-74
2022/01/10 08:56:00;;;;;;;88.22;17.40;;;-0.20;99.90;;;;;;5048814;28;20037;-72
2022/01/10 08:58:32;;;;;;;116.30;20.08;;;-0.20;99.90;;;;;;5058804;28;20113;-70
2022/01/10 09:00:58;;;;;;;118.40;18.98;;;-0.10;99.90;;;;;;5036048;28;20045;-71
2022/01/10 09:03:24;;;;;;;79.45;16.33;;;-0.20;99.90;;;;;;5048205;28;20052;-73
2022/01/10 09:05:49;;;;;;;83.95;16.23;;;-0.20;99.90;;;;;;5049523;28;20060;-73
2022/01/10 09:08:15;;;;;;;114.10;16.92;;;-0.20;99.90;;;;;;5065705;28;20376;-72
2022/01/10 09:10:41;;;;;;;67.15;14.05;;;0.10;99.90;;;;;;5034007;28;20052;-73
2022/01/10 09:13:07;;;;;;;72.55;14.60;;;-0.10;99.90;;;;;;5055208;28;20044;-70
2022/01/10 09:15:33;;;;;;;133.38;20.45;;;-0.10;99.90;;;;;;5050150;28;20053;-72
2022/01/10 09:17:59;;;;;;;53.72;14.63;;;0.00;99.90;;;;;;5035906;28;20056;-72
2022/01/10 09:20:25;;;;;;;44.42;14.90;;;0.00;99.90;;;;;;5035745;28;20045;-72
2022/01/10 09:22:51;;;;;;;23.25;13.65;;;0.00;99.90;;;;;;5060842;28;20047;-72
2022/01/10 09:25:17;;;;;;;21.27;14.23;;;0.20;99.90;;;;;;5046584;28;20513;-72
2022/01/10 09:27:42;;;;;;;23.20;14.63;;;0.10;99.90;;;;;;5073564;28;20047;-72
2022/01/10 09:30:09;;;;;;;26.30;15.52;;;0.20;99.90;;;;;;5043923;28;20502;-72
2022/01/10 09:32:38;;;;;;;24.45;14.95;;;0.30;99.90;;;;;;5045924;28;20097;-73
2022/01/10 09:35:04;;;;;;;28.27;16.40;;;0.30;99.90;;;;;;5054015;28;20360;-72
2022/01/10 09:37:30;;;;;;;22.63;15.00;;;0.50;99.90;;;;;;5038782;28;20562;-71
2022/01/10 09:39:56;;;;;;;29.52;17.00;;;0.50;99.90;;;;;;5035819;28;20137;-71
2022/01/10 09:42:23;;;;;;;26.63;17.35;;;0.70;99.90;;;;;;5034588;28;20052;-72
2022/01/10 09:44:49;;;;;;;32.38;18.85;;;0.70;99.90;;;;;;5035163;28;20514;-72
2022/01/10 09:47:15;;;;;;;29.15;17.50;;;0.80;99.90;;;;;;5053012;28;20053;-72
2022/01/10 09:49:43;;;;;;;28.10;18.60;;;0.80;99.90;;;;;;5069412;28;20079;-72
2022/01/10 09:52:10;;;;;;;36.80;20.85;;;0.90;99.90;;;;;;5035108;28;20053;-72
2022/01/10 09:54:35;;;;;;;42.97;23.48;;;1.00;99.90;;;;;;5054210;28;20123;-72
2022/01/10 09:57:01;;;;;;;44.78;22.45;;;1.10;99.90;;;;;;5035290;28;20135;-71
2022/01/10 09:59:28;;;;;;;38.38;22.67;;;1.10;99.90;;;;;;5053466;28;20487;-71
2022/01/10 10:01:54;;;;;;;41.20;22.90;;;1.20;99.90;;;;;;5046202;28;20052;-70
2022/01/10 10:04:20;;;;;;;36.63;21.30;;;1.30;99.90;;;;;;5062279;28;20059;-71
2022/01/10 10:06:47;;;;;;;41.90;23.30;;;1.30;99.90;;;;;;5060333;28;20455;-71
2022/01/10 10:09:13;;;;;;;44.80;25.33;;;1.40;99.90;;;;;;5046398;28;20102;-68
2022/01/10 10:11:48;;;;;;;49.60;24.42;;;1.50;99.90;;;;;;5051378;28;20376;-69
2022/01/10 10:14:18;;;;;;;46.85;26.10;;;1.50;99.90;;;;;;5053367;28;20697;-69
2022/01/10 10:16:52;;;;;;;31.40;19.98;;;1.60;99.90;;;;;;5047870;28;20041;-69
2022/01/10 10:19:21;;;;;;;35.92;22.17;;;1.60;99.90;;;;;;5033407;28;20057;-69
2022/01/10 10:21:47;;;;;;;40.17;21.77;;;1.70;99.90;;;;;;5052266;28;20064;-69
2022/01/10 10:24:13;;;;;;;41.80;23.27;;;2.00;99.90;;;;;;5034392;28;20518;-67
2022/01/10 10:26:39;;;;;;;37.78;21.27;;;1.80;99.90;;;;;;5038088;28;20426;-68
2022/01/10 10:29:09;;;;;;;41.95;23.20;;;1.90;99.90;;;;;;5066923;28;20052;-67
2022/01/10 10:31:45;;;;;;;40.10;21.83;;;1.90;99.90;;;;;;5049905;28;20052;-67
2022/01/10 10:34:17;;;;;;;34.97;19.80;;;2.00;99.90;;;;;;5047958;28;20068;-69
2022/01/10 10:36:43;;;;;;;37.85;22.85;;;2.10;99.90;;;;;;5058917;28;20407;-69
2022/01/10 10:39:10;;;;;;;34.67;21.23;;;2.10;99.90;;;;;;5061005;28;20048;-69
2022/01/10 10:41:37;;;;;;;33.00;19.45;;;2.20;99.90;;;;;;5049669;28;20049;-69
2022/01/10 10:44:05;;;;;;;36.33;21.42;;;2.30;99.90;;;;;;5051722;28;20052;-69
2022/01/10 10:46:31;;;;;;;35.15;21.40;;;2.30;99.90;;;;;;5052401;28;20055;-69
2022/01/10 10:49:03;;;;;;;33.30;20.15;;;2.40;99.90;;;;;;5053765;28;20036;-69
2022/01/10 10:51:33;;;;;;;37.63;22.45;;;2.50;99.90;;;;;;5052923;28;20097;-68
2022/01/10 10:54:08;;;;;;;35.45;22.13;;;2.60;99.90;;;;;;5052734;28;20402;-68
2022/01/10 10:56:36;;;;;;;36.03;19.50;;;2.70;99.90;;;;;;5071106;28;20045;-68
2022/01/10 10:59:03;;;;;;;39.45;22.48;;;2.80;99.90;;;;;;5053270;28;20083;-69
2022/01/10 11:01:29;;;;;;;41.17;23.23;;;2.90;99.90;;;;;;5049736;28;20068;-68
2022/01/10 11:03:55;;;;;;;32.03;20.52;;;3.00;99.90;;;;;;5051041;28;20049;-68
2022/01/10 11:06:21;;;;;;;33.35;21.00;;;3.00;99.90;;;;;;5057096;28;20040;-68
2022/01/10 11:08:47;;;;;;;39.78;22.60;;;3.10;99.90;;;;;;5052537;28;20501;-68
2022/01/10 11:11:21;;;;;;;38.50;21.63;;;3.10;99.90;;;;;;5070562;28;20117;-68
2022/01/10 11:13:47;;;;;;;35.13;21.27;;;3.20;99.90;;;;;;5052190;28;20259;-68
2022/01/10 11:16:13;;;;;;;29.40;19.13;;;3.30;99.90;;;;;;5052441;28;20066;-68
2022/01/10 11:18:39;;;;;;;36.47;20.98;;;3.40;99.90;;;;;;5053236;28;20045;-69
2022/01/10 11:21:05;;;;;;;39.60;22.05;;;3.40;99.90;;;;;;5069342;28;20044;-66
2022/01/10 11:23:31;;;;;;;29.17;20.42;;;3.50;99.90;;;;;;5070557;28;20094;-73
2022/01/10 11:25:57;;;;;;;32.08;19.98;;;3.60;99.90;;;;;;5067471;28;20037;-68
2022/01/10 11:28:25;;;;;;;33.38;20.42;;;3.70;99.90;;;;;;5048234;28;20434;-68
2022/01/10 11:31:02;;;;;;;36.15;18.67;;;3.70;99.90;;;;;;5044820;28;20048;-66
2022/01/10 11:33:34;;;;;;;29.80;19.40;;;3.70;99.90;;;;;;5051796;28;20040;-66
2022/01/10 11:36:07;;;;;;;32.63;21.08;;;3.80;99.90;;;;;;5032000;28;20053;-65
2022/01/10 11:38:54;;;;;;;35.38;20.20;;;3.90;99.90;;;;;;5041000;28;20071;-65
2022/01/10 11:41:25;;;;;;;36.22;20.50;;;4.00;99.90;;;;;;5049166;28;20048;-65
2022/01/10 11:44:08;;;;;;;31.33;20.63;;;4.10;99.90;;;;;;5066106;28;20045;-64
2022/01/10 11:46:44;;;;;;;33.83;20.60;;;4.10;99.90;;;;;;5070980;28;20045;-64
2022/01/10 11:49:11;;;;;;;33.42;20.40;;;4.20;99.90;;;;;;5042823;28;20380;-64
2022/01/10 11:51:38;;;;;;;31.30;20.63;;;4.30;99.90;;;;;;5061956;28;20056;-65
2022/01/10 11:54:17;;;;;;;34.05;21.42;;;4.40;99.90;;;;;;5042511;28;20135;-65
2022/01/10 11:56:50;;;;;;;36.85;20.25;;;4.40;99.90;;;;;;5038168;28;20052;-65
2022/01/10 11:59:18;;;;;;;28.35;18.83;;;4.40;99.90;;;;;;5064961;28;20049;-65
2022/01/10 12:01:58;;;;;;;32.72;18.88;;;4.50;99.90;;;;;;5061492;28;20041;-65
2022/01/10 12:04:26;;;;;;;28.85;19.77;;;4.60;99.90;;;;;;5044464;28;20055;-65
2022/01/10 12:06:53;;;;;;;31.75;19.13;;;4.60;99.90;;;;;;5058588;28;20060;-65
2022/01/10 12:09:19;;;;;;;29.83;17.90;;;4.60;99.90;;;;;;5059987;28;20071;-65
2022/01/10 12:11:46;;;;;;;30.85;17.88;;;4.60;99.90;;;;;;5067226;28;20055;-65
2022/01/10 12:14:13;;;;;;;34.95;19.13;;;4.70;99.90;;;;;;5069110;28;20040;-65
2022/01/10 12:16:39;;;;;;;34.80;18.00;;;4.80;99.90;;;;;;5050539;28;20094;-65
2022/01/10 12:19:06;;;;;;;27.77;18.38;;;4.80;99.90;;;;;;5051520;28;20048;-65
2022/01/10 12:21:32;;;;;;;40.60;19.63;;;4.80;99.90;;;;;;5070517;28;20048;-65
2022/01/10 12:23:58;;;;;;;32.15;19.08;;;4.90;99.90;;;;;;5033566;28;20098;-65
2022/01/10 12:26:25;;;;;;;37.25;20.05;;;4.90;99.90;;;;;;5050200;28;20498;-66
2022/01/10 12:28:54;;;;;;;32.45;19.95;;;5.00;99.90;;;;;;5032307;28;20087;-66
2022/01/10 12:31:21;;;;;;;52.35;19.98;;;5.00;99.90;;;;;;5049997;28;20136;-66
2022/01/10 12:33:49;;;;;;;30.50;19.08;;;5.00;99.90;;;;;;5050813;28;20049;-66
2022/01/10 12:36:16;;;;;;;33.65;17.98;;;5.10;99.90;;;;;;5032495;28;20054;-65
2022/01/10 12:38:52;;;;;;;34.40;18.30;;;5.10;99.90;;;;;;5055311;28;20049;-65
2022/01/10 12:41:20;;;;;;;33.85;17.73;;;5.10;99.90;;;;;;5060722;28;20045;-64
2022/01/10 12:43:47;;;;;;;27.30;18.50;;;5.20;99.90;;;;;;5064024;28;20060;-64
2022/01/10 12:46:14;;;;;;;28.02;17.05;;;5.20;99.90;;;;;;5069515;28;20124;-65
2022/01/10 12:48:50;;;;;;;30.08;18.27;;;5.20;99.90;;;;;;5048945;28;20056;-64
2022/01/10 12:51:18;;;;;;;26.15;15.93;;;5.30;99.90;;;;;;5053379;28;20502;-64
2022/01/10 12:53:48;;;;;;;33.85;18.33;;;5.30;99.90;;;;;;5053804;28;20041;-64